Abbotsford Airport
CYXX : now visible

Airfield :











YOU CAN JOIN US ON...

 
LOGIN :

Register | Disclaimer

   EN    FR    IT 

 









Legend :    VFR   Marginal VFR   IFR   Intensive IFR   Very Intensive IFR
Visi :
Ceiling :
>= 8 km
>= 3000ft
5 to 8 km
1000 to 3000 ft
1500m to 5 km
500 to 1000 ft
800 to 1500m
200 to 500 ft
< 800m
< 200 ft
Symbols :   Thunderstorms  Fog  Heavy snow  Heavy precipitations  Wind > 20 kt






- Airport Elevation : 195 ft
- IATA code : YXX


CYXX - Abbotsford

CURRENT METAR :
  • 031700Z 22004KT 3SM RA BR SCT008 SCT012 BKN023 OVC038 12/12 A3006 RMK SF3SC1SC2NS2 SLP182

EXPIRED METARs :
  • 031639Z 22004KT 3SM RA BR FEW003 SCT006 BKN012 OVC035 12/11 A3006 RMK SF1SF2SC3NS2 SLP182
  • 031600Z 25005KT 200V260 3SM RA BR SCT005 BKN012 BKN023 OVC038 12/11 A3005 RMK SF3SC2SC1NS2 SLP178
  • 031513Z 24002KT 3SM RA BR FEW004 FEW014 SCT022 BKN029 OVC040 12/11 A3003 RMK SF1SC1SC2SC3NS2 SF TR SLP172
  • 031500Z VRB02KT 5SM RA BR FEW006 SCT014 BKN019 OVC039 12/12 A3003 RMK SF1SC3SC3NS2 SF TR SLP172
  • 031418Z VRB02KT 8SM -RA FEW007 BKN019 OVC042 12/11 A3002 RMK SF1SC6NS1 SLP167

TAF TAF CYXX
Valid from the 03 at 12:00 until the 04 at 12:00 UTC


031138Z 0312/0412 VRB03KT P6SM SCT020 BKN050 OVC070
TEMPO 0312/0314 P6SM -SHRA BKN020 OVC050
FM031400 VRB03KT P6SM -RA SCT008 OVC030
TEMPO 0314/0404 3SM -SHRA BR BKN008 OVC020
BECMG 0316/0318 23008KT
FM040400 VRB03KT P6SM SCT020 BKN040
TEMPO 0404/0412 SCT008 BKN020 RMK NXT FCST BY 031800Z
CZVR FIR / North America



MET'MAP, your aeronautical weather chart ! - Copyright ORBIFLY December 2007 - Disclaimer

ORBIFLY MET'MAP TEAM :

Programming & Development : Alexandra Zaïnal
Concept & original design : Baudouin d'Aumeries
Assistance for programming : Marc-Olivier Méhu
Technical & hardware support : Manuel Goepfert

Contact : metmap@orbifly.com




SOURCES & CREDITS :

   NOAA       Earth
Advisory